Aérodrome :
LOGIN :

S'inscrire | Disclaimer

   EN    FR    IT 

 










Légende :    VFR   VFR Marginal   IFR   IFR Intensif   IFR Très Intensif
Visi : 
Plafond : 
>= 8 km
>= 3000ft
5 à 8 km
1000 à 3000 ft
1500m à 5 km
500 à 1000 ft
800 à 1500m
200 à 500 ft
< 800m
< 200 ft
Symboles :   Orages  Brouillard  Fortes neiges  Fortes précipitations  Vent > 20 kt
SIGMETs :   Divers  Orages  Givrage  Turbulence  Onde Orograph.  Cendres Volcan.







- Altitude de l'aérodrome : 2001 ft
- Code IATA : MAD


LEMD - Madrid

DERNIER METAR :
  • 171900Z 04005KT 350V080 9999 FEW060 BKN080 10/04 Q1023 NOSIG

METARs EXPIRÉS :
  • 171830Z 05006KT 9999 SCT050 BKN080 10/04 Q1023 NOSIG
  • 171800Z 05008KT 010V090 9999 SCT050 BKN080 10/04 Q1023 NOSIG
  • 171730Z 04008KT 360V100 9999 SCT040 BKN058 11/05 Q1023 NOSIG
  • 171700Z 04009KT 010V080 9999 SCT040 BKN056 11/05 Q1022 NOSIG
  • 171630Z 05008KT 020V090 9999 SCT040 BKN055 11/05 Q1022 NOSIG

TAF TAF LEMD
Valide du 17 à 18h jusqu'au 19 à 00h UTC


171700Z 1718/1824 05012KT 9999 SCT035 BKN055 TX14/1815Z TN04/1806Z
BECMG 1804/1807 VRB05KT
BECMG 1814/1816 01012KT
BECMG 1814/1816 BKN020
PROB30
TEMPO 1803/1810 3000 BR
Pas de NOTAMs connus pour ce terrain.



MET'MAP, la Météo Aéronautique d'un coup d'oeil ! - Copyright ORBIFLY Décembre 2007 - Disclaimer

ORBIFLY MET'MAP TEAM :

Programmation & Développement : Alexandra Zaïnal
Conception & Développement : Baudouin d'Aumeries
Co-Programmation & Développement : Marc-Olivier Méhu
Soutien technique & logistique : Manuel Goepfert

Contact : metmap@orbifly.com




SOURCES & CREDITS :

   NOAA